sensor_id;sensor_type;location;lat;lon;timestamp;P1;durP1;ratioP1;P2;durP2;ratioP2
1026;SDS011;502;48.746;9.214;2023-08-31T00:00:33;3.70;;;2.10;;
1026;SDS011;502;48.746;9.214;2023-08-31T00:03:01;2.40;;;2.10;;
1026;SDS011;502;48.746;9.214;2023-08-31T00:05:27;3.00;;;2.13;;
1026;SDS011;502;48.746;9.214;2023-08-31T00:07:55;3.97;;;2.23;;
1026;SDS011;502;48.746;9.214;2023-08-31T00:10:22;2.80;;;2.27;;
1026;SDS011;502;48.746;9.214;2023-08-31T00:12:50;2.60;;;2.23;;
1026;SDS011;502;48.746;9.214;2023-08-31T00:15:16;3.00;;;2.30;;
1026;SDS011;502;48.746;9.214;2023-08-31T00:17:43;3.67;;;2.53;;
1026;SDS011;502;48.746;9.214;2023-08-31T00:20:10;2.97;;;2.37;;
1026;SDS011;502;48.746;9.214;2023-08-31T00:22:38;3.17;;;2.07;;
1026;SDS011;502;48.746;9.214;2023-08-31T00:25:05;2.70;;;2.47;;
1026;SDS011;502;48.746;9.214;2023-08-31T00:27:33;4.97;;;2.33;;
1026;SDS011;502;48.746;9.214;2023-08-31T00:30:04;2.60;;;2.40;;
1026;SDS011;502;48.746;9.214;2023-08-31T00:32:32;2.90;;;2.23;;
1026;SDS011;502;48.746;9.214;2023-08-31T00:35:00;3.10;;;2.30;;
1026;SDS011;502;48.746;9.214;2023-08-31T00:37:29;2.80;;;2.43;;
1026;SDS011;502;48.746;9.214;2023-08-31T00:39:55;2.93;;;2.43;;
1026;SDS011;502;48.746;9.214;2023-08-31T00:42:22;3.90;;;3.07;;
1026;SDS011;502;48.746;9.214;2023-08-31T00:44:50;4.60;;;2.60;;
1026;SDS011;502;48.746;9.214;2023-08-31T00:47:19;3.67;;;2.73;;
1026;SDS011;502;48.746;9.214;2023-08-31T00:49:45;3.30;;;2.70;;
1026;SDS011;502;48.746;9.214;2023-08-31T00:52:12;2.97;;;2.70;;
1026;SDS011;502;48.746;9.214;2023-08-31T00:54:39;4.60;;;3.27;;
1026;SDS011;502;48.746;9.214;2023-08-31T00:57:07;3.83;;;2.60;;
1026;SDS011;502;48.746;9.214;2023-08-31T00:59:34;3.97;;;2.70;;
1026;SDS011;502;48.746;9.214;2023-08-31T01:02:02;3.50;;;2.70;;
1026;SDS011;502;48.746;9.214;2023-08-31T01:04:33;4.70;;;3.33;;
1026;SDS011;502;48.746;9.214;2023-08-31T01:07:08;4.20;;;3.60;;
1026;SDS011;502;48.746;9.214;2023-08-31T01:09:39;3.70;;;3.03;;
1026;SDS011;502;48.746;9.214;2023-08-31T01:12:11;3.80;;;3.03;;
1026;SDS011;502;48.746;9.214;2023-08-31T01:14:41;3.63;;;3.13;;
1026;SDS011;502;48.746;9.214;2023-08-31T01:17:09;3.13;;;2.83;;
1026;SDS011;502;48.746;9.214;2023-08-31T01:19:44;6.30;;;3.10;;
1026;SDS011;502;48.746;9.214;2023-08-31T01:22:14;3.20;;;2.77;;
1026;SDS011;502;48.746;9.214;2023-08-31T01:24:47;4.03;;;3.30;;
1026;SDS011;502;48.746;9.214;2023-08-31T01:27:13;3.43;;;2.87;;
1026;SDS011;502;48.746;9.214;2023-08-31T01:29:40;3.53;;;3.20;;
1026;SDS011;502;48.746;9.214;2023-08-31T01:32:08;3.00;;;2.70;;
1026;SDS011;502;48.746;9.214;2023-08-31T01:34:37;4.40;;;4.00;;
1026;SDS011;502;48.746;9.214;2023-08-31T01:37:08;3.20;;;2.63;;
1026;SDS011;502;48.746;9.214;2023-08-31T01:39:37;3.43;;;3.13;;
1026;SDS011;502;48.746;9.214;2023-08-31T01:42:10;3.47;;;3.13;;
1026;SDS011;502;48.746;9.214;2023-08-31T01:44:39;4.97;;;3.30;;
1026;SDS011;502;48.746;9.214;2023-08-31T01:47:06;3.67;;;2.93;;
1026;SDS011;502;48.746;9.214;2023-08-31T01:49:36;4.90;;;3.77;;
1026;SDS011;502;48.746;9.214;2023-08-31T01:52:03;4.30;;;2.90;;
1026;SDS011;502;48.746;9.214;2023-08-31T01:54:30;4.00;;;3.23;;
1026;SDS011;502;48.746;9.214;2023-08-31T01:56:58;3.30;;;3.00;;
1026;SDS011;502;48.746;9.214;2023-08-31T01:59:26;3.70;;;3.33;;
1026;SDS011;502;48.746;9.214;2023-08-31T02:01:53;4.10;;;3.57;;
1026;SDS011;502;48.746;9.214;2023-08-31T02:04:20;3.50;;;2.90;;
1026;SDS011;502;48.746;9.214;2023-08-31T02:06:47;3.87;;;2.80;;
1026;SDS011;502;48.746;9.214;2023-08-31T02:09:14;3.67;;;2.80;;
1026;SDS011;502;48.746;9.214;2023-08-31T02:11:40;3.87;;;3.00;;
1026;SDS011;502;48.746;9.214;2023-08-31T02:14:07;3.60;;;3.13;;
1026;SDS011;502;48.746;9.214;2023-08-31T02:16:35;4.00;;;3.17;;
1026;SDS011;502;48.746;9.214;2023-08-31T02:19:01;3.90;;;2.67;;
1026;SDS011;502;48.746;9.214;2023-08-31T02:21:28;4.40;;;3.30;;
1026;SDS011;502;48.746;9.214;2023-08-31T02:23:55;2.93;;;2.50;;
1026;SDS011;502;48.746;9.214;2023-08-31T02:26:21;4.53;;;2.97;;
1026;SDS011;502;48.746;9.214;2023-08-31T02:28:48;3.53;;;2.77;;
1026;SDS011;502;48.746;9.214;2023-08-31T02:31:16;4.17;;;2.57;;
1026;SDS011;502;48.746;9.214;2023-08-31T02:33:44;3.97;;;2.83;;
1026;SDS011;502;48.746;9.214;2023-08-31T02:36:12;2.80;;;2.60;;
1026;SDS011;502;48.746;9.214;2023-08-31T02:38:41;3.00;;;2.60;;
1026;SDS011;502;48.746;9.214;2023-08-31T02:41:07;3.30;;;2.70;;
1026;SDS011;502;48.746;9.214;2023-08-31T02:43:35;3.63;;;2.80;;
1026;SDS011;502;48.746;9.214;2023-08-31T02:46:02;3.57;;;3.23;;
1026;SDS011;502;48.746;9.214;2023-08-31T02:48:29;4.27;;;3.03;;
1026;SDS011;502;48.746;9.214;2023-08-31T02:50:57;3.60;;;3.20;;
1026;SDS011;502;48.746;9.214;2023-08-31T02:53:26;4.30;;;2.93;;
1026;SDS011;502;48.746;9.214;2023-08-31T02:55:53;3.03;;;2.73;;
1026;SDS011;502;48.746;9.214;2023-08-31T02:58:19;3.93;;;3.47;;
1026;SDS011;502;48.746;9.214;2023-08-31T03:00:46;3.10;;;2.83;;
1026;SDS011;502;48.746;9.214;2023-08-31T03:03:14;3.67;;;2.80;;
1026;SDS011;502;48.746;9.214;2023-08-31T03:05:42;2.93;;;2.53;;
1026;SDS011;502;48.746;9.214;2023-08-31T03:08:10;3.57;;;3.03;;
1026;SDS011;502;48.746;9.214;2023-08-31T03:10:38;3.00;;;2.70;;
1026;SDS011;502;48.746;9.214;2023-08-31T03:13:04;3.33;;;2.73;;
1026;SDS011;502;48.746;9.214;2023-08-31T03:15:32;3.70;;;2.97;;
1026;SDS011;502;48.746;9.214;2023-08-31T03:17:59;2.87;;;2.50;;
1026;SDS011;502;48.746;9.214;2023-08-31T03:20:25;4.00;;;3.10;;
1026;SDS011;502;48.746;9.214;2023-08-31T03:22:52;3.70;;;3.00;;
1026;SDS011;502;48.746;9.214;2023-08-31T03:25:20;4.13;;;3.20;;
1026;SDS011;502;48.746;9.214;2023-08-31T03:27:47;4.03;;;3.03;;
1026;SDS011;502;48.746;9.214;2023-08-31T03:30:13;5.37;;;3.60;;
1026;SDS011;502;48.746;9.214;2023-08-31T03:32:40;3.33;;;2.93;;
1026;SDS011;502;48.746;9.214;2023-08-31T03:35:07;4.83;;;3.40;;
1026;SDS011;502;48.746;9.214;2023-08-31T03:37:34;3.50;;;2.87;;
1026;SDS011;502;48.746;9.214;2023-08-31T03:40:01;3.70;;;2.83;;
1026;SDS011;502;48.746;9.214;2023-08-31T03:42:30;4.83;;;3.70;;
1026;SDS011;502;48.746;9.214;2023-08-31T03:44:57;4.47;;;3.07;;
1026;SDS011;502;48.746;9.214;2023-08-31T03:47:24;4.67;;;3.17;;
1026;SDS011;502;48.746;9.214;2023-08-31T03:49:51;3.07;;;2.77;;
1026;SDS011;502;48.746;9.214;2023-08-31T03:52:18;3.37;;;2.80;;
1026;SDS011;502;48.746;9.214;2023-08-31T03:54:45;4.43;;;3.43;;
1026;SDS011;502;48.746;9.214;2023-08-31T03:57:11;4.00;;;3.50;;
1026;SDS011;502;48.746;9.214;2023-08-31T03:59:39;3.93;;;3.53;;
1026;SDS011;502;48.746;9.214;2023-08-31T04:02:06;3.80;;;3.50;;
1026;SDS011;502;48.746;9.214;2023-08-31T04:04:32;4.80;;;3.10;;
1026;SDS011;502;48.746;9.214;2023-08-31T04:06:59;3.80;;;3.30;;
1026;SDS011;502;48.746;9.214;2023-08-31T04:09:26;4.33;;;3.20;;
1026;SDS011;502;48.746;9.214;2023-08-31T04:11:52;5.50;;;3.73;;
1026;SDS011;502;48.746;9.214;2023-08-31T04:14:19;3.70;;;3.30;;
1026;SDS011;502;48.746;9.214;2023-08-31T04:16:47;5.40;;;4.40;;
1026;SDS011;502;48.746;9.214;2023-08-31T04:19:15;5.47;;;3.47;;
1026;SDS011;502;48.746;9.214;2023-08-31T04:21:42;4.60;;;4.07;;
1026;SDS011;502;48.746;9.214;2023-08-31T04:24:08;4.07;;;3.67;;
1026;SDS011;502;48.746;9.214;2023-08-31T04:26:35;3.80;;;3.10;;
1026;SDS011;502;48.746;9.214;2023-08-31T04:29:02;4.77;;;3.90;;
1026;SDS011;502;48.746;9.214;2023-08-31T04:31:30;5.07;;;3.60;;
1026;SDS011;502;48.746;9.214;2023-08-31T04:33:58;4.23;;;3.73;;
1026;SDS011;502;48.746;9.214;2023-08-31T04:36:25;4.47;;;3.37;;
1026;SDS011;502;48.746;9.214;2023-08-31T04:38:52;4.10;;;3.70;;
1026;SDS011;502;48.746;9.214;2023-08-31T04:41:18;4.20;;;3.30;;
1026;SDS011;502;48.746;9.214;2023-08-31T04:43:46;4.13;;;3.70;;
1026;SDS011;502;48.746;9.214;2023-08-31T04:46:19;4.20;;;3.80;;
1026;SDS011;502;48.746;9.214;2023-08-31T04:48:46;5.63;;;3.80;;
1026;SDS011;502;48.746;9.214;2023-08-31T04:53:57;7.00;;;4.13;;
1026;SDS011;502;48.746;9.214;2023-08-31T04:56:24;4.23;;;3.63;;
1026;SDS011;502;48.746;9.214;2023-08-31T04:58:51;4.13;;;3.13;;
1026;SDS011;502;48.746;9.214;2023-08-31T05:01:18;6.13;;;3.73;;
1026;SDS011;502;48.746;9.214;2023-08-31T05:03:44;4.57;;;3.20;;
1026;SDS011;502;48.746;9.214;2023-08-31T05:06:11;6.27;;;3.77;;
1026;SDS011;502;48.746;9.214;2023-08-31T05:08:39;6.37;;;3.83;;
1026;SDS011;502;48.746;9.214;2023-08-31T05:11:05;5.50;;;4.03;;
1026;SDS011;502;48.746;9.214;2023-08-31T05:13:32;4.27;;;3.87;;
1026;SDS011;502;48.746;9.214;2023-08-31T05:15:58;4.47;;;4.03;;
1026;SDS011;502;48.746;9.214;2023-08-31T05:18:25;5.37;;;4.20;;
1026;SDS011;502;48.746;9.214;2023-08-31T05:20:51;4.60;;;3.97;;
1026;SDS011;502;48.746;9.214;2023-08-31T05:23:18;6.27;;;5.47;;
1026;SDS011;502;48.746;9.214;2023-08-31T05:25:46;4.40;;;3.80;;
1026;SDS011;502;48.746;9.214;2023-08-31T05:28:13;6.70;;;4.60;;
1026;SDS011;502;48.746;9.214;2023-08-31T05:30:46;5.07;;;3.87;;
1026;SDS011;502;48.746;9.214;2023-08-31T05:33:14;4.33;;;3.93;;
1026;SDS011;502;48.746;9.214;2023-08-31T05:35:41;6.03;;;5.03;;
1026;SDS011;502;48.746;9.214;2023-08-31T05:38:08;4.00;;;3.60;;
1026;SDS011;502;48.746;9.214;2023-08-31T05:40:34;5.20;;;4.03;;
1026;SDS011;502;48.746;9.214;2023-08-31T05:43:02;4.70;;;4.00;;
1026;SDS011;502;48.746;9.214;2023-08-31T05:45:31;4.57;;;4.17;;
1026;SDS011;502;48.746;9.214;2023-08-31T05:47:58;4.90;;;4.40;;
1026;SDS011;502;48.746;9.214;2023-08-31T05:50:25;4.20;;;3.67;;
1026;SDS011;502;48.746;9.214;2023-08-31T05:52:52;5.07;;;3.80;;
1026;SDS011;502;48.746;9.214;2023-08-31T05:55:18;4.00;;;3.60;;
1026;SDS011;502;48.746;9.214;2023-08-31T05:57:45;4.40;;;3.87;;
1026;SDS011;502;48.746;9.214;2023-08-31T06:00:13;5.60;;;4.57;;
1026;SDS011;502;48.746;9.214;2023-08-31T06:02:41;5.00;;;3.97;;
1026;SDS011;502;48.746;9.214;2023-08-31T06:05:08;4.57;;;3.97;;
1026;SDS011;502;48.746;9.214;2023-08-31T06:07:37;6.07;;;4.50;;
1026;SDS011;502;48.746;9.214;2023-08-31T06:10:04;6.23;;;4.30;;
1026;SDS011;502;48.746;9.214;2023-08-31T06:12:31;8.00;;;3.83;;
1026;SDS011;502;48.746;9.214;2023-08-31T06:14:57;3.90;;;3.50;;
1026;SDS011;502;48.746;9.214;2023-08-31T06:17:26;9.90;;;5.37;;
1026;SDS011;502;48.746;9.214;2023-08-31T06:19:53;9.00;;;3.97;;
1026;SDS011;502;48.746;9.214;2023-08-31T06:22:19;5.20;;;3.00;;
1026;SDS011;502;48.746;9.214;2023-08-31T06:24:48;4.73;;;3.90;;
1026;SDS011;502;48.746;9.214;2023-08-31T06:27:14;5.43;;;4.13;;
1026;SDS011;502;48.746;9.214;2023-08-31T06:29:42;4.03;;;3.63;;
1026;SDS011;502;48.746;9.214;2023-08-31T06:32:09;6.03;;;4.07;;
1026;SDS011;502;48.746;9.214;2023-08-31T06:34:37;4.80;;;3.57;;
1026;SDS011;502;48.746;9.214;2023-08-31T06:37:04;3.97;;;3.50;;
1026;SDS011;502;48.746;9.214;2023-08-31T06:39:30;5.00;;;4.07;;
1026;SDS011;502;48.746;9.214;2023-08-31T06:41:58;4.73;;;3.70;;
1026;SDS011;502;48.746;9.214;2023-08-31T06:44:29;4.70;;;3.37;;
1026;SDS011;502;48.746;9.214;2023-08-31T06:46:56;6.43;;;3.93;;
1026;SDS011;502;48.746;9.214;2023-08-31T06:49:22;4.27;;;3.50;;
1026;SDS011;502;48.746;9.214;2023-08-31T06:51:50;4.13;;;3.30;;
1026;SDS011;502;48.746;9.214;2023-08-31T06:54:19;3.60;;;3.13;;
1026;SDS011;502;48.746;9.214;2023-08-31T06:56:45;5.60;;;3.33;;
1026;SDS011;502;48.746;9.214;2023-08-31T06:59:12;3.37;;;3.07;;
1026;SDS011;502;48.746;9.214;2023-08-31T07:01:39;4.40;;;3.23;;
1026;SDS011;502;48.746;9.214;2023-08-31T07:04:05;5.07;;;3.50;;
1026;SDS011;502;48.746;9.214;2023-08-31T07:06:33;5.10;;;3.63;;
1026;SDS011;502;48.746;9.214;2023-08-31T07:09:01;4.57;;;3.67;;
1026;SDS011;502;48.746;9.214;2023-08-31T07:11:28;3.33;;;3.00;;
1026;SDS011;502;48.746;9.214;2023-08-31T07:13:55;4.00;;;3.37;;
1026;SDS011;502;48.746;9.214;2023-08-31T07:16:22;3.40;;;2.80;;
1026;SDS011;502;48.746;9.214;2023-08-31T07:18:49;3.60;;;3.13;;
1026;SDS011;502;48.746;9.214;2023-08-31T07:21:16;5.83;;;3.07;;
1026;SDS011;502;48.746;9.214;2023-08-31T07:23:42;3.90;;;2.70;;
1026;SDS011;502;48.746;9.214;2023-08-31T07:26:10;3.63;;;2.93;;
1026;SDS011;502;48.746;9.214;2023-08-31T07:28:37;4.00;;;3.10;;
1026;SDS011;502;48.746;9.214;2023-08-31T07:31:04;3.87;;;2.87;;
1026;SDS011;502;48.746;9.214;2023-08-31T07:33:31;4.10;;;2.77;;
1026;SDS011;502;48.746;9.214;2023-08-31T07:36:00;3.23;;;2.20;;
1026;SDS011;502;48.746;9.214;2023-08-31T07:38:29;4.77;;;2.43;;
1026;SDS011;502;48.746;9.214;2023-08-31T07:40:56;3.77;;;2.80;;
1026;SDS011;502;48.746;9.214;2023-08-31T07:43:24;2.47;;;2.27;;
1026;SDS011;502;48.746;9.214;2023-08-31T07:45:51;3.33;;;2.33;;
1026;SDS011;502;48.746;9.214;2023-08-31T07:48:18;2.80;;;2.50;;
1026;SDS011;502;48.746;9.214;2023-08-31T07:50:45;3.10;;;2.27;;
1026;SDS011;502;48.746;9.214;2023-08-31T07:53:11;2.63;;;2.23;;
1026;SDS011;502;48.746;9.214;2023-08-31T07:55:38;4.33;;;2.97;;
1026;SDS011;502;48.746;9.214;2023-08-31T07:58:05;2.70;;;2.27;;
1026;SDS011;502;48.746;9.214;2023-08-31T08:00:34;3.13;;;2.30;;
1026;SDS011;502;48.746;9.214;2023-08-31T08:03:00;3.13;;;2.20;;
1026;SDS011;502;48.746;9.214;2023-08-31T08:05:27;5.77;;;2.20;;
1026;SDS011;502;48.746;9.214;2023-08-31T08:07:53;2.33;;;2.00;;
1026;SDS011;502;48.746;9.214;2023-08-31T08:10:20;4.27;;;2.20;;
1026;SDS011;502;48.746;9.214;2023-08-31T08:12:46;2.90;;;2.00;;
1026;SDS011;502;48.746;9.214;2023-08-31T08:15:13;3.30;;;2.50;;
1026;SDS011;502;48.746;9.214;2023-08-31T08:17:41;3.17;;;2.40;;
1026;SDS011;502;48.746;9.214;2023-08-31T08:20:08;4.03;;;2.43;;
1026;SDS011;502;48.746;9.214;2023-08-31T08:22:36;3.47;;;2.23;;
1026;SDS011;502;48.746;9.214;2023-08-31T08:25:02;5.47;;;2.70;;
1026;SDS011;502;48.746;9.214;2023-08-31T08:27:29;2.50;;;1.97;;
1026;SDS011;502;48.746;9.214;2023-08-31T08:29:58;3.83;;;2.10;;
1026;SDS011;502;48.746;9.214;2023-08-31T08:32:24;2.90;;;1.80;;
1026;SDS011;502;48.746;9.214;2023-08-31T08:34:52;4.73;;;2.47;;
1026;SDS011;502;48.746;9.214;2023-08-31T08:37:19;3.43;;;2.50;;
1026;SDS011;502;48.746;9.214;2023-08-31T08:39:47;3.10;;;2.17;;
1026;SDS011;502;48.746;9.214;2023-08-31T08:42:14;3.23;;;2.20;;
1026;SDS011;502;48.746;9.214;2023-08-31T08:44:42;2.70;;;2.00;;
1026;SDS011;502;48.746;9.214;2023-08-31T08:47:09;2.30;;;2.00;;
1026;SDS011;502;48.746;9.214;2023-08-31T08:49:37;3.13;;;2.00;;
1026;SDS011;502;48.746;9.214;2023-08-31T08:52:06;3.17;;;2.10;;
1026;SDS011;502;48.746;9.214;2023-08-31T08:54:32;5.17;;;2.50;;
1026;SDS011;502;48.746;9.214;2023-08-31T08:57:00;3.60;;;2.20;;
1026;SDS011;502;48.746;9.214;2023-08-31T08:59:29;3.67;;;2.27;;
1026;SDS011;502;48.746;9.214;2023-08-31T09:01:56;4.20;;;2.07;;
1026;SDS011;502;48.746;9.214;2023-08-31T09:04:23;2.80;;;2.03;;
1026;SDS011;502;48.746;9.214;2023-08-31T09:06:50;2.70;;;2.00;;
1026;SDS011;502;48.746;9.214;2023-08-31T09:09:18;2.90;;;2.10;;
1026;SDS011;502;48.746;9.214;2023-08-31T09:11:45;3.10;;;2.07;;
1026;SDS011;502;48.746;9.214;2023-08-31T09:14:14;2.60;;;2.00;;
1026;SDS011;502;48.746;9.214;2023-08-31T09:16:43;3.97;;;2.47;;
1026;SDS011;502;48.746;9.214;2023-08-31T09:19:17;3.40;;;2.63;;
1026;SDS011;502;48.746;9.214;2023-08-31T09:21:44;3.00;;;2.40;;
1026;SDS011;502;48.746;9.214;2023-08-31T09:24:11;3.47;;;2.20;;
1026;SDS011;502;48.746;9.214;2023-08-31T09:26:40;3.20;;;2.10;;
1026;SDS011;502;48.746;9.214;2023-08-31T09:29:06;3.73;;;2.23;;
1026;SDS011;502;48.746;9.214;2023-08-31T09:31:33;2.53;;;1.93;;
1026;SDS011;502;48.746;9.214;2023-08-31T09:34:00;4.03;;;2.97;;
1026;SDS011;502;48.746;9.214;2023-08-31T09:36:28;3.63;;;2.73;;
1026;SDS011;502;48.746;9.214;2023-08-31T09:38:56;3.30;;;2.10;;
1026;SDS011;502;48.746;9.214;2023-08-31T09:41:23;4.90;;;3.00;;
1026;SDS011;502;48.746;9.214;2023-08-31T09:43:52;3.67;;;2.33;;
1026;SDS011;502;48.746;9.214;2023-08-31T09:46:18;4.40;;;2.70;;
1026;SDS011;502;48.746;9.214;2023-08-31T09:48:46;2.60;;;1.87;;
1026;SDS011;502;48.746;9.214;2023-08-31T09:51:14;3.17;;;2.30;;
1026;SDS011;502;48.746;9.214;2023-08-31T09:53:42;2.80;;;2.10;;
1026;SDS011;502;48.746;9.214;2023-08-31T09:56:10;4.17;;;2.20;;
1026;SDS011;502;48.746;9.214;2023-08-31T09:58:39;4.13;;;2.50;;
1026;SDS011;502;48.746;9.214;2023-08-31T10:01:07;4.93;;;2.10;;
1026;SDS011;502;48.746;9.214;2023-08-31T10:03:34;4.47;;;2.70;;
1026;SDS011;502;48.746;9.214;2023-08-31T10:06:01;3.50;;;2.47;;
1026;SDS011;502;48.746;9.214;2023-08-31T10:08:27;2.70;;;1.87;;
1026;SDS011;502;48.746;9.214;2023-08-31T10:10:57;2.53;;;2.00;;
1026;SDS011;502;48.746;9.214;2023-08-31T10:13:25;4.43;;;2.40;;
1026;SDS011;502;48.746;9.214;2023-08-31T10:15:52;3.00;;;2.40;;
1026;SDS011;502;48.746;9.214;2023-08-31T10:18:20;2.80;;;2.10;;
1026;SDS011;502;48.746;9.214;2023-08-31T10:20:47;3.90;;;2.43;;
1026;SDS011;502;48.746;9.214;2023-08-31T10:23:14;4.80;;;2.50;;
1026;SDS011;502;48.746;9.214;2023-08-31T10:26:00;3.93;;;2.83;;
1026;SDS011;502;48.746;9.214;2023-08-31T10:28:28;3.13;;;2.50;;
1026;SDS011;502;48.746;9.214;2023-08-31T10:31:02;4.23;;;3.00;;
1026;SDS011;502;48.746;9.214;2023-08-31T10:33:32;3.40;;;2.57;;
1026;SDS011;502;48.746;9.214;2023-08-31T10:35:59;4.10;;;2.27;;
1026;SDS011;502;48.746;9.214;2023-08-31T10:38:27;3.07;;;2.23;;
1026;SDS011;502;48.746;9.214;2023-08-31T10:41:02;3.20;;;2.20;;
1026;SDS011;502;48.746;9.214;2023-08-31T10:43:46;2.80;;;1.97;;
1026;SDS011;502;48.746;9.214;2023-08-31T10:46:15;2.07;;;1.87;;
1026;SDS011;502;48.746;9.214;2023-08-31T10:48:52;3.27;;;2.40;;
1026;SDS011;502;48.746;9.214;2023-08-31T10:51:21;3.03;;;2.03;;
1026;SDS011;502;48.746;9.214;2023-08-31T10:53:48;3.90;;;2.27;;
1026;SDS011;502;48.746;9.214;2023-08-31T10:56:15;4.20;;;2.60;;
1026;SDS011;502;48.746;9.214;2023-08-31T10:58:42;4.40;;;2.43;;
1026;SDS011;502;48.746;9.214;2023-08-31T11:01:10;3.53;;;2.00;;
1026;SDS011;502;48.746;9.214;2023-08-31T11:06:25;3.07;;;1.93;;
1026;SDS011;502;48.746;9.214;2023-08-31T11:08:55;4.00;;;2.43;;
1026;SDS011;502;48.746;9.214;2023-08-31T11:11:22;3.60;;;1.90;;
1026;SDS011;502;48.746;9.214;2023-08-31T11:13:49;3.70;;;2.40;;
1026;SDS011;502;48.746;9.214;2023-08-31T11:16:15;4.27;;;2.17;;
1026;SDS011;502;48.746;9.214;2023-08-31T11:18:42;2.87;;;1.90;;
1026;SDS011;502;48.746;9.214;2023-08-31T11:21:10;2.30;;;2.07;;
1026;SDS011;502;48.746;9.214;2023-08-31T11:23:36;3.83;;;2.53;;
1026;SDS011;502;48.746;9.214;2023-08-31T11:26:03;2.93;;;2.10;;
1026;SDS011;502;48.746;9.214;2023-08-31T11:28:32;2.80;;;2.07;;
1026;SDS011;502;48.746;9.214;2023-08-31T11:30:59;3.50;;;2.40;;
1026;SDS011;502;48.746;9.214;2023-08-31T11:33:30;4.03;;;2.20;;
1026;SDS011;502;48.746;9.214;2023-08-31T11:35:57;3.60;;;2.40;;
1026;SDS011;502;48.746;9.214;2023-08-31T11:38:26;3.37;;;2.30;;
1026;SDS011;502;48.746;9.214;2023-08-31T11:40:55;3.27;;;1.97;;
1026;SDS011;502;48.746;9.214;2023-08-31T11:43:22;2.80;;;1.80;;
1026;SDS011;502;48.746;9.214;2023-08-31T11:45:49;2.53;;;2.10;;
1026;SDS011;502;48.746;9.214;2023-08-31T11:48:16;5.20;;;2.60;;
1026;SDS011;502;48.746;9.214;2023-08-31T11:50:43;5.03;;;2.13;;
1026;SDS011;502;48.746;9.214;2023-08-31T11:53:09;5.43;;;2.27;;
1026;SDS011;502;48.746;9.214;2023-08-31T11:55:38;5.20;;;3.00;;
1026;SDS011;502;48.746;9.214;2023-08-31T11:58:16;3.13;;;2.10;;
1026;SDS011;502;48.746;9.214;2023-08-31T12:00:42;4.87;;;1.73;;
1026;SDS011;502;48.746;9.214;2023-08-31T12:03:12;2.30;;;2.00;;
1026;SDS011;502;48.746;9.214;2023-08-31T12:05:45;3.50;;;2.17;;
1026;SDS011;502;48.746;9.214;2023-08-31T12:08:12;2.60;;;2.30;;
1026;SDS011;502;48.746;9.214;2023-08-31T12:10:41;5.37;;;2.33;;
1026;SDS011;502;48.746;9.214;2023-08-31T12:13:08;4.20;;;2.33;;
1026;SDS011;502;48.746;9.214;2023-08-31T12:15:34;4.33;;;1.93;;
1026;SDS011;502;48.746;9.214;2023-08-31T12:18:06;4.00;;;2.40;;
1026;SDS011;502;48.746;9.214;2023-08-31T12:20:33;3.30;;;2.40;;
1026;SDS011;502;48.746;9.214;2023-08-31T12:23:06;2.80;;;1.83;;
1026;SDS011;502;48.746;9.214;2023-08-31T12:25:34;3.87;;;2.30;;
1026;SDS011;502;48.746;9.214;2023-08-31T12:28:03;2.97;;;2.00;;
1026;SDS011;502;48.746;9.214;2023-08-31T12:30:29;3.53;;;2.20;;
1026;SDS011;502;48.746;9.214;2023-08-31T12:32:56;2.30;;;1.97;;
1026;SDS011;502;48.746;9.214;2023-08-31T12:35:23;4.40;;;2.67;;
1026;SDS011;502;48.746;9.214;2023-08-31T12:37:49;4.87;;;2.13;;
1026;SDS011;502;48.746;9.214;2023-08-31T12:40:16;3.00;;;2.10;;
1026;SDS011;502;48.746;9.214;2023-08-31T12:42:44;3.10;;;2.30;;
1026;SDS011;502;48.746;9.214;2023-08-31T12:45:12;3.27;;;2.20;;
1026;SDS011;502;48.746;9.214;2023-08-31T12:47:38;3.53;;;2.20;;
1026;SDS011;502;48.746;9.214;2023-08-31T12:50:05;4.63;;;2.40;;
1026;SDS011;502;48.746;9.214;2023-08-31T12:52:32;3.13;;;2.20;;
1026;SDS011;502;48.746;9.214;2023-08-31T12:54:59;3.10;;;2.07;;
1026;SDS011;502;48.746;9.214;2023-08-31T12:57:25;3.50;;;2.23;;
1026;SDS011;502;48.746;9.214;2023-08-31T12:59:52;3.20;;;2.17;;
1026;SDS011;502;48.746;9.214;2023-08-31T13:02:20;6.00;;;2.37;;
1026;SDS011;502;48.746;9.214;2023-08-31T13:04:47;4.07;;;2.70;;
1026;SDS011;502;48.746;9.214;2023-08-31T13:07:15;2.50;;;1.97;;
1026;SDS011;502;48.746;9.214;2023-08-31T13:09:44;2.80;;;2.10;;
1026;SDS011;502;48.746;9.214;2023-08-31T13:12:11;3.97;;;2.93;;
1026;SDS011;502;48.746;9.214;2023-08-31T13:14:38;2.83;;;2.07;;
1026;SDS011;502;48.746;9.214;2023-08-31T13:17:04;3.13;;;2.27;;
1026;SDS011;502;48.746;9.214;2023-08-31T13:19:32;3.77;;;2.37;;
1026;SDS011;502;48.746;9.214;2023-08-31T13:21:59;3.43;;;2.30;;
1026;SDS011;502;48.746;9.214;2023-08-31T13:24:25;4.10;;;2.27;;
1026;SDS011;502;48.746;9.214;2023-08-31T13:26:52;3.60;;;2.83;;
1026;SDS011;502;48.746;9.214;2023-08-31T13:29:19;2.67;;;2.23;;
1026;SDS011;502;48.746;9.214;2023-08-31T13:31:46;2.90;;;2.00;;
1026;SDS011;502;48.746;9.214;2023-08-31T13:34:13;5.80;;;2.40;;
1026;SDS011;502;48.746;9.214;2023-08-31T13:36:41;2.60;;;2.40;;
1026;SDS011;502;48.746;9.214;2023-08-31T13:39:08;3.47;;;2.67;;
1026;SDS011;502;48.746;9.214;2023-08-31T13:41:35;3.73;;;2.53;;
1026;SDS011;502;48.746;9.214;2023-08-31T13:44:01;3.17;;;2.20;;
1026;SDS011;502;48.746;9.214;2023-08-31T13:46:28;4.07;;;2.13;;
1026;SDS011;502;48.746;9.214;2023-08-31T13:48:56;5.37;;;2.60;;
1026;SDS011;502;48.746;9.214;2023-08-31T13:51:23;6.23;;;2.63;;
1026;SDS011;502;48.746;9.214;2023-08-31T13:53:51;2.20;;;1.83;;
1026;SDS011;502;48.746;9.214;2023-08-31T13:56:18;3.60;;;2.20;;
1026;SDS011;502;48.746;9.214;2023-08-31T13:58:46;4.37;;;2.30;;
1026;SDS011;502;48.746;9.214;2023-08-31T14:01:12;4.23;;;2.13;;
1026;SDS011;502;48.746;9.214;2023-08-31T14:03:39;3.10;;;2.20;;
1026;SDS011;502;48.746;9.214;2023-08-31T14:06:06;3.90;;;2.10;;
1026;SDS011;502;48.746;9.214;2023-08-31T14:08:33;5.40;;;3.17;;
1026;SDS011;502;48.746;9.214;2023-08-31T14:11:01;4.40;;;2.70;;
1026;SDS011;502;48.746;9.214;2023-08-31T14:13:28;2.90;;;2.50;;
1026;SDS011;502;48.746;9.214;2023-08-31T14:15:54;3.00;;;2.50;;
1026;SDS011;502;48.746;9.214;2023-08-31T14:18:22;4.87;;;3.03;;
1026;SDS011;502;48.746;9.214;2023-08-31T14:20:50;3.23;;;2.77;;
1026;SDS011;502;48.746;9.214;2023-08-31T14:23:17;5.83;;;2.97;;
1026;SDS011;502;48.746;9.214;2023-08-31T14:25:43;4.10;;;2.90;;
1026;SDS011;502;48.746;9.214;2023-08-31T14:28:11;2.90;;;2.47;;
1026;SDS011;502;48.746;9.214;2023-08-31T14:30:38;5.47;;;3.37;;
1026;SDS011;502;48.746;9.214;2023-08-31T14:33:05;3.60;;;2.50;;
1026;SDS011;502;48.746;9.214;2023-08-31T14:35:31;3.30;;;2.53;;
1026;SDS011;502;48.746;9.214;2023-08-31T14:37:58;3.80;;;2.40;;
1026;SDS011;502;48.746;9.214;2023-08-31T14:40:25;3.90;;;2.30;;
1026;SDS011;502;48.746;9.214;2023-08-31T14:42:52;3.50;;;2.63;;
1026;SDS011;502;48.746;9.214;2023-08-31T14:45:20;3.07;;;2.33;;
1026;SDS011;502;48.746;9.214;2023-08-31T14:47:46;4.93;;;2.90;;
1026;SDS011;502;48.746;9.214;2023-08-31T14:50:13;3.40;;;2.43;;
1026;SDS011;502;48.746;9.214;2023-08-31T14:52:39;5.17;;;3.37;;
1026;SDS011;502;48.746;9.214;2023-08-31T14:55:06;3.67;;;2.50;;
1026;SDS011;502;48.746;9.214;2023-08-31T14:57:33;3.33;;;3.03;;
1026;SDS011;502;48.746;9.214;2023-08-31T15:00:00;3.20;;;2.53;;
1026;SDS011;502;48.746;9.214;2023-08-31T15:02:31;3.23;;;2.40;;
1026;SDS011;502;48.746;9.214;2023-08-31T15:04:58;5.20;;;2.03;;
1026;SDS011;502;48.746;9.214;2023-08-31T15:07:24;4.10;;;3.00;;
1026;SDS011;502;48.746;9.214;2023-08-31T15:09:51;4.10;;;2.40;;
1026;SDS011;502;48.746;9.214;2023-08-31T15:12:18;4.77;;;2.67;;
1026;SDS011;502;48.746;9.214;2023-08-31T15:14:44;2.80;;;2.50;;
1026;SDS011;502;48.746;9.214;2023-08-31T15:17:11;3.40;;;2.20;;
1026;SDS011;502;48.746;9.214;2023-08-31T15:19:39;2.87;;;2.53;;
1026;SDS011;502;48.746;9.214;2023-08-31T15:22:05;3.10;;;2.37;;
1026;SDS011;502;48.746;9.214;2023-08-31T15:24:32;4.87;;;2.80;;
1026;SDS011;502;48.746;9.214;2023-08-31T15:26:58;3.43;;;2.63;;
1026;SDS011;502;48.746;9.214;2023-08-31T15:29:25;3.90;;;2.50;;
1026;SDS011;502;48.746;9.214;2023-08-31T15:31:52;3.70;;;2.57;;
1026;SDS011;502;48.746;9.214;2023-08-31T15:34:19;5.10;;;3.03;;
1026;SDS011;502;48.746;9.214;2023-08-31T15:36:47;3.93;;;2.60;;